FXMM/MSU METAR and TAF weather

Enter ICAO airport designator
Station Type Date Time Source
FXMM METAR 2018/07/20 14:00 UTC NOAA

FXMM 201400Z 00000KT CAVOK 14/M04 Q1029 NOSIG


Station Type Date Time Source
FXMM Decoded METAR 2018/07/20 14:00 UTC NOAA

Maseru / Moshoeshoe, Lesotho (FXMM) 29-27S 027-33E
Jul 20, 2018 - 10:00 AM EDT / 2018.07.20 1400 UTC
Wind: Calm:0
Visibility: greater than 7 mile(s):0
Temperature: 57 F (14 C)
Dew Point: 24 F (-4 C)
Relative Humidity: 28%
Pressure (altimeter): 30.39 in. Hg (1029 hPa)
ob: FXMM 201400Z 00000KT CAVOK 14/M04 Q1029 NOSIG
cycle: 14

Station Type Date Time Source
FXMM TAF 2018/07/20 09:09 UTC NOAA

TAF TAF FXMM 200900Z 2009/2109 33005KT CAVOK
FM201800 00000KT
BECMG 2108/211000 32004KT


Example: see airport list